createdAt,value
2023-06-17T00:02:17.663Z,6.68
2023-06-17T00:04:47.525Z,6.70
2023-06-17T00:07:20.110Z,6.90
2023-06-17T00:09:50.038Z,6.93
2023-06-17T00:12:19.947Z,6.53
2023-06-17T00:14:52.164Z,6.15
2023-06-17T00:17:22.768Z,6.80
2023-06-17T00:19:53.042Z,6.45
2023-06-17T00:22:25.876Z,7.03
2023-06-17T00:24:55.766Z,6.47
2023-06-17T00:27:25.726Z,7.28
2023-06-17T00:29:55.664Z,7.72
2023-06-17T00:32:25.569Z,8.50
2023-06-17T00:34:55.497Z,9.25
2023-06-17T00:37:28.053Z,9.70
2023-06-17T00:39:57.965Z,8.98
2023-06-17T00:42:28.038Z,8.43
2023-06-17T00:44:57.970Z,8.43
2023-06-17T00:47:28.738Z,7.80
2023-06-17T00:49:58.880Z,7.65
2023-06-17T00:52:41.683Z,7.68
2023-06-17T00:55:13.862Z,8.05
2023-06-17T00:57:45.590Z,7.63
2023-06-17T01:00:17.430Z,6.78
2023-06-17T01:02:47.842Z,7.90
2023-06-17T01:05:20.205Z,7.22
2023-06-17T01:08:14.294Z,6.85
2023-06-17T01:10:50.490Z,7.07
2023-06-17T01:13:21.553Z,6.25
2023-06-17T01:15:51.816Z,6.78
2023-06-17T01:18:22.865Z,6.70
2023-06-17T01:20:57.081Z,6.47
2023-06-17T01:26:06.497Z,6.65
2023-06-17T01:28:38.226Z,6.83
2023-06-17T01:31:09.520Z,6.97
2023-06-17T01:33:40.550Z,7.20
2023-06-17T01:36:18.104Z,7.65
2023-06-17T01:38:52.176Z,6.70
2023-06-17T01:41:28.967Z,6.75
2023-06-17T01:44:01.000Z,6.78
2023-06-17T01:46:31.837Z,7.28
2023-06-17T01:49:01.846Z,6.97
2023-06-17T01:51:31.878Z,6.60
2023-06-17T01:54:01.791Z,7.45
2023-06-17T01:56:34.373Z,6.57
2023-06-17T01:59:04.356Z,6.82
2023-06-17T02:01:34.393Z,7.10
2023-06-17T02:04:04.309Z,7.15
2023-06-17T02:06:34.248Z,7.10
2023-06-17T02:09:04.274Z,6.78
2023-06-17T02:11:36.762Z,7.03
2023-06-17T02:14:06.684Z,6.57
2023-06-17T02:16:43.656Z,6.90
2023-06-17T02:19:13.560Z,7.20
2023-06-17T02:21:43.492Z,6.28
2023-06-17T02:24:13.970Z,5.93
2023-06-17T02:26:46.880Z,7.10
2023-06-17T02:29:17.083Z,6.90
2023-06-17T02:31:47.132Z,6.68
2023-06-17T02:34:17.345Z,6.97
2023-06-17T02:36:47.309Z,7.28
2023-06-17T02:39:17.343Z,6.65
2023-06-17T02:41:49.817Z,7.15
2023-06-17T02:44:19.797Z,6.93
2023-06-17T02:46:49.804Z,7.15
2023-06-17T02:49:19.721Z,6.80
2023-06-17T02:51:49.592Z,7.18
2023-06-17T02:54:19.498Z,6.57
2023-06-17T02:56:51.973Z,6.43
2023-06-17T02:59:22.905Z,6.15
2023-06-17T03:01:52.910Z,6.15
2023-06-17T03:04:24.629Z,5.50
2023-06-17T03:06:55.275Z,6.55
2023-06-17T03:09:26.386Z,6.72
2023-06-17T03:11:58.871Z,5.82
2023-06-17T03:14:30.402Z,6.47
2023-06-17T03:17:02.396Z,6.63
2023-06-17T03:19:32.509Z,6.40
2023-06-17T03:22:05.083Z,6.68
2023-06-17T03:24:35.086Z,6.88
2023-06-17T03:27:07.982Z,6.80
2023-06-17T03:29:38.452Z,6.55
2023-06-17T03:32:09.601Z,7.30
2023-06-17T03:34:39.475Z,6.50
2023-06-17T03:37:09.509Z,7.13
2023-06-17T03:39:39.636Z,7.63
2023-06-17T03:42:13.277Z,6.78
2023-06-17T03:44:43.130Z,6.40
2023-06-17T03:47:13.053Z,6.10
2023-06-17T03:49:44.132Z,5.75
2023-06-17T03:52:14.005Z,5.82
2023-06-17T03:54:43.893Z,6.05
2023-06-17T03:57:16.964Z,5.65
2023-06-17T03:59:46.981Z,5.57
2023-06-17T04:02:16.912Z,5.63
2023-06-17T04:04:47.468Z,5.18
2023-06-17T04:07:18.068Z,6.10
2023-06-17T04:09:58.018Z,5.28
2023-06-17T04:12:40.604Z,5.47
2023-06-17T04:15:11.774Z,6.10
2023-06-17T04:17:41.931Z,6.22
2023-06-17T04:20:14.074Z,6.15
2023-06-17T04:22:45.545Z,6.35
2023-06-17T04:25:22.164Z,6.25
2023-06-17T04:27:54.933Z,6.07
2023-06-17T04:30:26.207Z,6.32
2023-06-17T04:32:59.660Z,6.20
2023-06-17T04:35:29.824Z,6.50
2023-06-17T04:37:59.796Z,6.45
2023-06-17T04:40:29.705Z,6.15
2023-06-17T04:43:02.474Z,6.65
2023-06-17T04:45:32.599Z,6.78
2023-06-17T04:48:05.395Z,6.82
2023-06-17T04:50:35.411Z,7.05
2023-06-17T04:53:05.504Z,6.70
2023-06-17T04:55:37.180Z,6.53
2023-06-17T04:58:10.147Z,6.85
2023-06-17T05:00:40.039Z,6.95
2023-06-17T05:03:10.015Z,7.07
2023-06-17T05:05:39.999Z,6.40
2023-06-17T05:08:10.168Z,6.57
2023-06-17T05:10:40.172Z,6.53
2023-06-17T05:13:12.650Z,7.00
2023-06-17T05:15:42.531Z,6.60
2023-06-17T05:18:12.498Z,7.05
2023-06-17T05:20:42.455Z,7.00
2023-06-17T05:23:12.326Z,6.57
2023-06-17T05:25:42.212Z,6.72
2023-06-17T05:28:15.272Z,7.07
2023-06-17T05:30:45.207Z,7.07
2023-06-17T05:33:15.142Z,6.75
2023-06-17T05:35:45.074Z,7.43
2023-06-17T05:38:14.956Z,7.28
2023-06-17T05:40:44.899Z,6.47
2023-06-17T05:43:17.462Z,5.60
2023-06-17T05:45:47.575Z,7.35
2023-06-17T05:48:17.701Z,6.70
2023-06-17T05:50:47.696Z,6.80
2023-06-17T05:53:18.966Z,6.38
2023-06-17T05:55:48.911Z,6.38
2023-06-17T05:58:21.718Z,6.45
2023-06-17T06:00:51.591Z,6.65
2023-06-17T06:03:21.622Z,6.50
2023-06-17T06:05:51.556Z,6.40
2023-06-17T06:08:21.512Z,6.75
2023-06-17T06:10:51.857Z,6.55
2023-06-17T06:13:24.535Z,6.75
2023-06-17T06:15:54.459Z,6.15
2023-06-17T06:18:24.442Z,6.32
2023-06-17T06:20:54.321Z,6.03
2023-06-17T06:23:24.190Z,6.13
2023-06-17T06:25:54.475Z,6.28
2023-06-17T06:28:27.059Z,7.15
2023-06-17T06:30:56.965Z,6.63
2023-06-17T06:33:26.929Z,6.78
2023-06-17T06:35:56.828Z,7.72
2023-06-17T06:38:26.837Z,6.45
2023-06-17T06:40:56.723Z,6.53
2023-06-17T06:43:29.227Z,6.38
2023-06-17T06:45:59.153Z,6.05
2023-06-17T06:48:29.173Z,6.93
2023-06-17T06:50:59.108Z,6.68
2023-06-17T06:53:29.057Z,6.38
2023-06-17T06:55:59.697Z,5.75
2023-06-17T06:58:33.932Z,6.38
2023-06-17T07:01:03.961Z,6.82
2023-06-17T07:03:33.983Z,6.32
2023-06-17T07:06:04.325Z,6.15
2023-06-17T07:08:34.243Z,5.70
2023-06-17T07:11:04.326Z,6.03
2023-06-17T07:13:37.102Z,5.93
2023-06-17T07:16:08.274Z,6.00
2023-06-17T07:18:38.182Z,6.10
2023-06-17T07:21:08.052Z,5.90
2023-06-17T07:23:37.943Z,5.72
2023-06-17T07:26:07.908Z,6.28
2023-06-17T07:28:40.623Z,6.35
2023-06-17T07:31:10.866Z,5.85
2023-06-17T07:33:40.818Z,5.68
2023-06-17T07:36:10.856Z,5.38
2023-06-17T07:38:41.396Z,5.88
2023-06-17T07:41:11.370Z,5.00
2023-06-17T07:43:43.936Z,5.47
2023-06-17T07:46:13.853Z,5.32
2023-06-17T07:48:43.796Z,5.57
2023-06-17T07:51:13.698Z,5.35
2023-06-17T07:53:43.657Z,5.43
2023-06-17T07:56:13.522Z,5.85
2023-06-17T07:58:46.372Z,5.05
2023-06-17T08:01:16.503Z,5.70
2023-06-17T08:03:46.871Z,5.75
2023-06-17T08:06:17.547Z,6.30
2023-06-17T08:08:47.943Z,5.00
2023-06-17T08:11:18.010Z,5.82
2023-06-17T08:13:50.492Z,4.88
2023-06-17T08:16:20.462Z,5.22
2023-06-17T08:18:50.364Z,4.85
2023-06-17T08:21:20.367Z,4.95
2023-06-17T08:23:50.293Z,4.90
2023-06-17T08:26:20.218Z,4.97
2023-06-17T08:28:52.687Z,5.47
2023-06-17T08:31:27.687Z,4.78
2023-06-17T08:33:57.692Z,5.30
2023-06-17T08:36:27.567Z,5.18
2023-06-17T08:38:57.524Z,5.03
2023-06-17T08:41:28.724Z,5.65
2023-06-17T08:44:05.502Z,4.95
2023-06-17T08:46:36.084Z,4.70
2023-06-17T08:49:07.818Z,5.32
2023-06-17T08:51:38.818Z,4.55
2023-06-17T08:54:09.518Z,4.20
2023-06-17T08:56:40.010Z,4.38
2023-06-17T08:59:12.517Z,5.22
2023-06-17T09:01:43.433Z,4.97
2023-06-17T09:04:14.308Z,4.45
2023-06-17T09:06:45.670Z,4.43
2023-06-17T09:09:16.103Z,4.45
2023-06-17T09:11:53.443Z,4.03
2023-06-17T09:14:26.482Z,4.45
2023-06-17T09:16:56.783Z,4.18
2023-06-17T09:19:26.919Z,4.50
2023-06-17T09:21:57.332Z,3.90
2023-06-17T09:24:33.492Z,4.32
2023-06-17T09:27:03.926Z,4.60
2023-06-17T09:29:37.980Z,4.18
2023-06-17T09:32:09.120Z,3.80
2023-06-17T09:34:39.066Z,4.63
2023-06-17T09:37:09.394Z,4.38
2023-06-17T09:39:39.351Z,4.22
2023-06-17T09:42:13.694Z,4.20
2023-06-17T09:44:47.945Z,4.50
2023-06-17T09:47:23.382Z,4.00
2023-06-17T09:49:53.314Z,4.57
2023-06-17T09:52:24.438Z,4.28
2023-06-17T09:54:56.013Z,4.38
2023-06-17T09:57:27.451Z,4.30
2023-06-17T10:00:01.662Z,4.93
2023-06-17T10:02:32.665Z,4.05
2023-06-17T10:05:02.589Z,4.20
2023-06-17T10:07:39.378Z,4.25
2023-06-17T10:10:13.369Z,3.90
2023-06-17T10:15:22.918Z,4.20
2023-06-17T10:17:54.505Z,4.43
2023-06-17T10:20:27.491Z,4.70
2023-06-17T10:22:58.190Z,4.00
2023-06-17T10:25:28.199Z,4.57
2023-06-17T10:27:58.311Z,4.40
2023-06-17T10:30:32.070Z,4.60
2023-06-17T10:33:03.346Z,4.38
2023-06-17T10:35:43.001Z,5.30
2023-06-17T10:38:30.064Z,4.30
2023-06-17T10:41:09.024Z,4.60
2023-06-17T10:43:40.170Z,4.55
2023-06-17T10:46:12.766Z,4.75
2023-06-17T10:48:42.695Z,4.45
2023-06-17T10:51:14.032Z,4.50
2023-06-17T10:53:51.886Z,4.88
2023-06-17T10:56:22.375Z,4.65
2023-06-17T10:58:52.994Z,4.95
2023-06-17T11:01:25.677Z,4.55
2023-06-17T11:03:55.631Z,4.43
2023-06-17T11:06:25.543Z,4.20
2023-06-17T11:08:56.154Z,4.50
2023-06-17T11:11:26.167Z,3.97
2023-06-17T11:13:56.211Z,3.72
2023-06-17T11:16:29.691Z,3.85
2023-06-17T11:19:00.422Z,4.30
2023-06-17T11:21:30.433Z,3.85
2023-06-17T11:24:00.323Z,3.65
2023-06-17T11:26:31.027Z,4.43
2023-06-17T11:29:01.125Z,4.13
2023-06-17T11:31:39.764Z,4.20
2023-06-17T11:34:11.030Z,4.15
2023-06-17T11:36:41.563Z,4.00
2023-06-17T11:39:12.270Z,3.90
2023-06-17T11:41:42.915Z,3.65
2023-06-17T11:44:12.848Z,3.53
2023-06-17T11:46:46.190Z,4.10
2023-06-17T11:49:17.869Z,4.07
2023-06-17T11:51:51.841Z,3.95
2023-06-17T11:56:52.859Z,3.58
2023-06-17T11:59:23.438Z,3.55
2023-06-17T12:01:57.921Z,3.30
2023-06-17T12:04:29.635Z,3.15
2023-06-17T12:06:59.639Z,3.28
2023-06-17T12:09:30.806Z,2.95
2023-06-17T12:12:03.129Z,3.33
2023-06-17T12:14:33.145Z,3.15
2023-06-17T12:17:05.981Z,3.38
2023-06-17T12:19:37.367Z,3.33
2023-06-17T12:22:15.471Z,3.30
2023-06-17T12:24:45.389Z,3.40
2023-06-17T12:27:15.304Z,3.10
2023-06-17T12:29:46.992Z,3.35
2023-06-17T12:32:19.673Z,3.42
2023-06-17T12:34:49.658Z,3.75
2023-06-17T12:37:23.110Z,3.30
2023-06-17T12:39:54.554Z,3.45
2023-06-17T12:42:24.655Z,3.47
2023-06-17T12:44:54.781Z,3.60
2023-06-17T12:47:27.905Z,3.08
2023-06-17T12:49:57.880Z,2.83
2023-06-17T12:52:27.884Z,3.15
2023-06-17T12:55:02.265Z,3.42
2023-06-17T12:57:33.729Z,3.88
2023-06-17T13:00:05.341Z,3.25
2023-06-17T13:02:39.090Z,3.33
2023-06-17T13:05:09.912Z,3.10
2023-06-17T13:07:39.906Z,3.33
2023-06-17T13:10:10.747Z,3.90
2023-06-17T13:12:40.670Z,3.28
2023-06-17T13:15:11.858Z,3.40
2023-06-17T13:17:44.891Z,4.00
2023-06-17T13:20:16.155Z,3.73
2023-06-17T13:22:46.516Z,3.72
2023-06-17T13:25:16.489Z,3.90
2023-06-17T13:27:47.182Z,3.50
2023-06-17T13:30:17.379Z,3.78
2023-06-17T13:32:49.905Z,3.45
2023-06-17T13:35:20.466Z,3.45
2023-06-17T13:37:50.707Z,3.50
2023-06-17T13:40:20.999Z,3.30
2023-06-17T13:42:51.123Z,3.67
2023-06-17T13:45:21.332Z,3.70
2023-06-17T13:47:54.303Z,3.60
2023-06-17T13:50:24.553Z,3.63
2023-06-17T13:52:54.673Z,4.25
2023-06-17T13:55:25.869Z,3.75
2023-06-17T13:57:55.778Z,3.75
2023-06-17T14:00:25.859Z,3.90
2023-06-17T14:02:58.528Z,3.92
2023-06-17T14:05:28.790Z,3.60
2023-06-17T14:07:58.738Z,3.85
2023-06-17T14:10:28.728Z,4.03
2023-06-17T14:12:58.772Z,3.75
2023-06-17T14:15:28.809Z,4.40
2023-06-17T14:18:01.843Z,3.83
2023-06-17T14:20:32.549Z,4.33
2023-06-17T14:23:04.382Z,4.70
2023-06-17T14:25:34.324Z,4.10
2023-06-17T14:28:05.169Z,4.05
2023-06-17T14:30:35.145Z,3.88
2023-06-17T14:33:07.642Z,4.05
2023-06-17T14:35:37.589Z,3.97
2023-06-17T14:38:09.601Z,4.43
2023-06-17T14:40:39.882Z,4.53
2023-06-17T14:43:11.088Z,4.68
2023-06-17T14:45:41.032Z,4.20
2023-06-17T14:48:13.696Z,4.47
2023-06-17T14:50:43.858Z,4.15
2023-06-17T14:53:13.769Z,4.00
2023-06-17T14:55:44.153Z,4.20
2023-06-17T14:58:14.099Z,4.55
2023-06-17T15:00:43.976Z,4.10
2023-06-17T15:03:16.540Z,4.53
2023-06-17T15:05:46.587Z,4.68
2023-06-17T15:08:16.543Z,3.92
2023-06-17T15:10:46.444Z,4.03
2023-06-17T15:13:16.835Z,4.30
2023-06-17T15:15:46.843Z,4.25
2023-06-17T15:18:19.349Z,4.40
2023-06-17T15:20:49.260Z,4.05
2023-06-17T15:23:19.490Z,3.70
2023-06-17T15:25:49.454Z,4.38
2023-06-17T15:28:19.332Z,4.63
2023-06-17T15:30:49.258Z,4.32
2023-06-17T15:33:21.720Z,4.18
2023-06-17T15:35:51.590Z,3.95
2023-06-17T15:38:21.486Z,3.85
2023-06-17T15:40:51.356Z,4.32
2023-06-17T15:43:21.263Z,4.53
2023-06-17T15:45:51.140Z,4.70
2023-06-17T15:48:23.611Z,4.30
2023-06-17T15:50:53.525Z,4.28
2023-06-17T15:53:23.424Z,4.07
2023-06-17T15:55:53.335Z,4.18
2023-06-17T15:58:23.218Z,4.28
2023-06-17T16:00:53.625Z,4.68
2023-06-17T16:03:36.045Z,4.63
2023-06-17T16:06:06.142Z,4.57
2023-06-17T16:08:36.802Z,4.63
2023-06-17T16:11:07.126Z,4.70
2023-06-17T16:13:37.089Z,4.38
2023-06-17T16:16:07.588Z,4.38
2023-06-17T16:18:40.352Z,4.80
2023-06-17T16:21:10.288Z,4.47
2023-06-17T16:23:40.237Z,4.28
2023-06-17T16:26:10.138Z,4.30
2023-06-17T16:28:40.951Z,4.53
2023-06-17T16:31:11.039Z,4.38
2023-06-17T16:33:43.499Z,4.40
2023-06-17T16:36:13.399Z,4.60
2023-06-17T16:38:43.292Z,4.25
2023-06-17T16:41:13.168Z,4.03
2023-06-17T16:43:43.066Z,4.47
2023-06-17T16:46:13.093Z,4.20
2023-06-17T16:48:46.235Z,4.47
2023-06-17T16:51:16.283Z,3.80
2023-06-17T16:53:46.246Z,3.83
2023-06-17T16:56:16.307Z,4.50
2023-06-17T16:58:46.813Z,4.60
2023-06-17T17:01:16.845Z,4.68
2023-06-17T17:03:49.759Z,4.70
2023-06-17T17:06:19.858Z,4.17
2023-06-17T17:08:51.582Z,4.35
2023-06-17T17:11:21.488Z,4.40
2023-06-17T17:13:51.855Z,4.18
2023-06-17T17:16:22.063Z,4.50
2023-06-17T17:18:54.569Z,4.15
2023-06-17T17:21:24.504Z,4.78
2023-06-17T17:23:54.469Z,4.40
2023-06-17T17:26:24.399Z,4.20
2023-06-17T17:28:54.320Z,5.60
2023-06-17T17:31:24.246Z,4.65
2023-06-17T17:33:56.739Z,5.32
2023-06-17T17:36:26.664Z,4.78
2023-06-17T17:38:56.636Z,4.68
2023-06-17T17:41:27.176Z,4.82
2023-06-17T17:43:57.116Z,4.30
2023-06-17T17:46:27.089Z,4.93
2023-06-17T17:48:59.588Z,6.28
2023-06-17T17:51:29.858Z,4.70
2023-06-17T17:53:59.753Z,4.32
2023-06-17T17:56:30.554Z,6.60
2023-06-17T17:59:00.460Z,5.03
2023-06-17T18:01:30.389Z,4.57
2023-06-17T18:04:02.894Z,4.35
2023-06-17T18:06:33.019Z,5.05
2023-06-17T18:09:02.961Z,4.68
2023-06-17T18:11:33.565Z,4.60
2023-06-17T18:14:03.424Z,4.50
2023-06-17T18:16:33.728Z,4.50
2023-06-17T18:19:06.865Z,4.43
2023-06-17T18:21:37.478Z,5.00
2023-06-17T18:24:07.779Z,5.10
2023-06-17T18:26:37.733Z,4.95
2023-06-17T18:29:07.634Z,5.28
2023-06-17T18:31:37.505Z,5.65
2023-06-17T18:34:10.149Z,5.40
2023-06-17T18:36:40.186Z,4.78
2023-06-17T18:39:10.620Z,5.40
2023-06-17T18:41:43.335Z,5.47
2023-06-17T18:44:13.600Z,5.30
2023-06-17T18:46:43.924Z,4.50
2023-06-17T18:49:24.580Z,5.00
2023-06-17T18:51:55.100Z,4.95
2023-06-17T18:54:24.981Z,5.47
2023-06-17T18:56:54.902Z,4.50
2023-06-17T18:59:24.825Z,5.88
2023-06-17T19:01:54.871Z,5.07
2023-06-17T19:04:27.538Z,5.00
2023-06-17T19:06:57.482Z,5.18
2023-06-17T19:09:27.390Z,5.55
2023-06-17T19:12:00.950Z,5.20
2023-06-17T19:14:31.664Z,5.50
2023-06-17T19:17:01.831Z,5.30
2023-06-17T19:19:34.338Z,4.85
2023-06-17T19:22:04.333Z,5.35
2023-06-17T19:24:34.299Z,5.90
2023-06-17T19:27:04.306Z,4.78
2023-06-17T19:29:34.213Z,5.35
2023-06-17T19:32:04.113Z,5.65
2023-06-17T19:34:36.619Z,5.43
2023-06-17T19:37:07.108Z,6.03
2023-06-17T19:39:37.051Z,6.07
2023-06-17T19:42:07.783Z,6.50
2023-06-17T19:44:43.795Z,6.22
2023-06-17T19:47:14.043Z,6.18
2023-06-17T19:49:47.288Z,6.90
2023-06-17T19:52:17.272Z,7.40
2023-06-17T19:54:47.166Z,8.05
2023-06-17T19:57:17.425Z,7.03
2023-06-17T19:59:47.530Z,7.13
2023-06-17T20:02:20.471Z,7.18
2023-06-17T20:04:53.220Z,6.82
2023-06-17T20:07:23.303Z,6.85
2023-06-17T20:09:53.242Z,6.88
2023-06-17T20:12:23.122Z,7.25
2023-06-17T20:14:52.990Z,7.22
2023-06-17T20:17:24.298Z,6.93
2023-06-17T20:19:57.241Z,6.18
2023-06-17T20:22:27.224Z,6.30
2023-06-17T20:24:57.170Z,6.40
2023-06-17T20:27:27.068Z,6.10
2023-06-17T20:29:56.981Z,8.85
2023-06-17T20:32:26.890Z,7.25
2023-06-17T20:34:59.923Z,6.88
2023-06-17T20:37:29.833Z,6.20
2023-06-17T20:39:59.693Z,7.03
2023-06-17T20:42:29.899Z,7.07
2023-06-17T20:44:59.812Z,6.40
2023-06-17T20:47:30.079Z,7.25
2023-06-17T20:50:02.734Z,7.05
2023-06-17T20:52:32.677Z,6.65
2023-06-17T20:55:02.642Z,6.53
2023-06-17T20:57:32.504Z,6.90
2023-06-17T21:00:02.430Z,6.80
2023-06-17T21:02:33.311Z,7.07
2023-06-17T21:05:06.097Z,7.47
2023-06-17T21:07:36.070Z,8.63
2023-06-17T21:10:06.744Z,9.07
2023-06-17T21:12:37.518Z,8.18
2023-06-17T21:15:09.154Z,7.90
2023-06-17T21:17:39.274Z,7.90
2023-06-17T21:20:13.328Z,7.05
2023-06-17T21:22:43.231Z,7.25
2023-06-17T21:25:13.159Z,7.28
2023-06-17T21:27:43.074Z,7.60
2023-06-17T21:30:13.779Z,7.25
2023-06-17T21:32:44.319Z,7.43
2023-06-17T21:35:18.294Z,8.63
2023-06-17T21:37:48.278Z,8.18
2023-06-17T21:40:18.262Z,8.25
2023-06-17T21:42:48.167Z,8.73
2023-06-17T21:45:18.995Z,8.50
2023-06-17T21:47:48.979Z,8.23
2023-06-17T21:50:21.829Z,8.85
2023-06-17T21:52:51.857Z,8.77
2023-06-17T21:55:21.816Z,7.78
2023-06-17T21:57:51.715Z,7.78
2023-06-17T22:00:22.790Z,8.38
2023-06-17T22:02:53.007Z,8.60
2023-06-17T22:05:25.555Z,8.43
2023-06-17T22:07:55.759Z,10.18
2023-06-17T22:10:25.837Z,9.88
2023-06-17T22:12:56.491Z,9.45
2023-06-17T22:15:26.364Z,10.45
2023-06-17T22:17:57.021Z,10.80
2023-06-17T22:20:29.510Z,10.90
2023-06-17T22:22:59.562Z,11.05
2023-06-17T22:25:29.455Z,11.23
2023-06-17T22:27:59.627Z,11.35
2023-06-17T22:30:30.841Z,10.75
2023-06-17T22:33:00.862Z,10.70
2023-06-17T22:35:33.346Z,10.88
2023-06-17T22:38:03.338Z,10.57
2023-06-17T22:40:33.232Z,10.18
2023-06-17T22:43:03.099Z,11.18
2023-06-17T22:45:32.956Z,10.50
2023-06-17T22:48:03.602Z,9.13
2023-06-17T22:50:36.489Z,9.85
2023-06-17T22:53:06.505Z,9.55
2023-06-17T22:55:37.127Z,9.15
2023-06-17T22:58:07.115Z,9.20
2023-06-17T23:00:37.035Z,9.32
2023-06-17T23:03:07.087Z,9.13
2023-06-17T23:05:39.741Z,9.32
2023-06-17T23:08:09.688Z,8.75
2023-06-17T23:10:40.225Z,9.15
2023-06-17T23:13:10.158Z,9.45
2023-06-17T23:15:41.986Z,8.77
2023-06-17T23:18:12.038Z,9.07
2023-06-17T23:20:45.126Z,9.00
2023-06-17T23:23:17.150Z,8.48
2023-06-17T23:25:47.389Z,9.30
2023-06-17T23:28:19.150Z,8.95
2023-06-17T23:30:49.109Z,8.98
2023-06-17T23:33:19.444Z,8.88
2023-06-17T23:35:51.975Z,8.85
2023-06-17T23:38:22.036Z,9.18
2023-06-17T23:40:52.134Z,8.88
2023-06-17T23:43:22.104Z,9.82
2023-06-17T23:45:56.160Z,9.52
2023-06-17T23:48:26.446Z,9.73
2023-06-17T23:50:59.161Z,9.60
2023-06-17T23:53:29.120Z,9.48
2023-06-17T23:55:59.063Z,9.65
2023-06-17T23:58:30.386Z,8.93
